sensor_id;sensor_type;location;lat;lon;timestamp;temperature;humidity
18950;DHT22;9608;49.288;8.130;2024-02-21T00:01:15;9.80;99.90
18950;DHT22;9608;49.288;8.130;2024-02-21T00:03:44;9.70;99.90
18950;DHT22;9608;49.288;8.130;2024-02-21T00:06:10;9.80;99.90
18950;DHT22;9608;49.288;8.130;2024-02-21T00:08:37;9.70;99.90
18950;DHT22;9608;49.288;8.130;2024-02-21T00:11:04;9.70;99.90
18950;DHT22;9608;49.288;8.130;2024-02-21T00:13:31;9.70;99.90
18950;DHT22;9608;49.288;8.130;2024-02-21T00:15:59;9.70;99.90
18950;DHT22;9608;49.288;8.130;2024-02-21T00:18:26;9.70;99.90
18950;DHT22;9608;49.288;8.130;2024-02-21T00:20:54;9.70;99.90
18950;DHT22;9608;49.288;8.130;2024-02-21T00:23:21;9.80;99.90
18950;DHT22;9608;49.288;8.130;2024-02-21T00:25:47;9.80;99.90
18950;DHT22;9608;49.288;8.130;2024-02-21T00:28:14;9.70;99.90
18950;DHT22;9608;49.288;8.130;2024-02-21T00:30:41;9.70;99.90
18950;DHT22;9608;49.288;8.130;2024-02-21T00:33:08;9.70;99.90
18950;DHT22;9608;49.288;8.130;2024-02-21T00:35:35;9.60;99.90
18950;DHT22;9608;49.288;8.130;2024-02-21T00:38:03;9.60;99.90
18950;DHT22;9608;49.288;8.130;2024-02-21T00:40:30;9.60;99.90
18950;DHT22;9608;49.288;8.130;2024-02-21T00:42:56;9.50;99.90
18950;DHT22;9608;49.288;8.130;2024-02-21T00:45:23;9.40;99.90
18950;DHT22;9608;49.288;8.130;2024-02-21T00:47:50;9.40;99.90
18950;DHT22;9608;49.288;8.130;2024-02-21T00:50:16;9.30;99.90
18950;DHT22;9608;49.288;8.130;2024-02-21T00:52:43;9.30;99.90
18950;DHT22;9608;49.288;8.130;2024-02-21T00:55:12;9.40;99.90
18950;DHT22;9608;49.288;8.130;2024-02-21T00:57:38;9.40;99.90
18950;DHT22;9608;49.288;8.130;2024-02-21T01:00:06;9.40;99.90
18950;DHT22;9608;49.288;8.130;2024-02-21T01:02:33;9.30;99.90
18950;DHT22;9608;49.288;8.130;2024-02-21T01:05:00;9.30;99.90
18950;DHT22;9608;49.288;8.130;2024-02-21T01:07:27;9.30;99.90
18950;DHT22;9608;49.288;8.130;2024-02-21T01:09:54;9.30;99.90
18950;DHT22;9608;49.288;8.130;2024-02-21T01:12:22;9.30;99.90
18950;DHT22;9608;49.288;8.130;2024-02-21T01:14:49;9.20;99.90
18950;DHT22;9608;49.288;8.130;2024-02-21T01:17:15;9.20;99.90
18950;DHT22;9608;49.288;8.130;2024-02-21T01:19:42;9.20;99.90
18950;DHT22;9608;49.288;8.130;2024-02-21T01:22:09;9.20;99.90
18950;DHT22;9608;49.288;8.130;2024-02-21T01:24:36;9.20;99.90
18950;DHT22;9608;49.288;8.130;2024-02-21T01:27:03;9.10;99.90
18950;DHT22;9608;49.288;8.130;2024-02-21T01:29:31;9.10;99.90
18950;DHT22;9608;49.288;8.130;2024-02-21T01:31:57;9.10;99.90
18950;DHT22;9608;49.288;8.130;2024-02-21T01:34:27;9.10;99.90
18950;DHT22;9608;49.288;8.130;2024-02-21T01:36:54;9.10;99.90
18950;DHT22;9608;49.288;8.130;2024-02-21T01:39:20;9.10;99.90
18950;DHT22;9608;49.288;8.130;2024-02-21T01:41:47;9.10;99.90
18950;DHT22;9608;49.288;8.130;2024-02-21T01:44:14;9.10;99.90
18950;DHT22;9608;49.288;8.130;2024-02-21T01:46:42;9.10;99.90
18950;DHT22;9608;49.288;8.130;2024-02-21T01:49:09;9.10;99.90
18950;DHT22;9608;49.288;8.130;2024-02-21T01:51:36;9.20;99.90
18950;DHT22;9608;49.288;8.130;2024-02-21T01:54:03;9.20;99.90
18950;DHT22;9608;49.288;8.130;2024-02-21T01:56:30;9.10;99.90
18950;DHT22;9608;49.288;8.130;2024-02-21T01:58:57;9.10;99.90
18950;DHT22;9608;49.288;8.130;2024-02-21T02:01:25;9.10;99.90
18950;DHT22;9608;49.288;8.130;2024-02-21T02:03:53;9.10;99.90
18950;DHT22;9608;49.288;8.130;2024-02-21T02:06:21;9.10;99.90
18950;DHT22;9608;49.288;8.130;2024-02-21T02:08:48;9.10;99.90
18950;DHT22;9608;49.288;8.130;2024-02-21T02:11:14;9.00;99.90
18950;DHT22;9608;49.288;8.130;2024-02-21T02:13:41;9.10;99.90
18950;DHT22;9608;49.288;8.130;2024-02-21T02:16:08;9.20;99.90
18950;DHT22;9608;49.288;8.130;2024-02-21T02:18:35;9.20;99.90
18950;DHT22;9608;49.288;8.130;2024-02-21T02:21:04;9.30;99.90
18950;DHT22;9608;49.288;8.130;2024-02-21T02:23:33;9.30;99.90
18950;DHT22;9608;49.288;8.130;2024-02-21T02:26:00;9.30;99.90
18950;DHT22;9608;49.288;8.130;2024-02-21T02:28:27;9.30;99.90
18950;DHT22;9608;49.288;8.130;2024-02-21T02:30:54;9.30;99.90
18950;DHT22;9608;49.288;8.130;2024-02-21T02:33:20;9.30;99.90
18950;DHT22;9608;49.288;8.130;2024-02-21T02:35:47;9.40;99.90
18950;DHT22;9608;49.288;8.130;2024-02-21T02:38:14;9.40;99.90
18950;DHT22;9608;49.288;8.130;2024-02-21T02:40:42;9.40;99.90
18950;DHT22;9608;49.288;8.130;2024-02-21T02:43:09;9.50;99.90
18950;DHT22;9608;49.288;8.130;2024-02-21T02:45:36;9.50;99.90
18950;DHT22;9608;49.288;8.130;2024-02-21T02:48:03;9.60;99.90
18950;DHT22;9608;49.288;8.130;2024-02-21T02:50:30;9.60;99.90
18950;DHT22;9608;49.288;8.130;2024-02-21T02:52:56;9.50;99.90
18950;DHT22;9608;49.288;8.130;2024-02-21T02:55:23;9.40;99.90
18950;DHT22;9608;49.288;8.130;2024-02-21T02:57:52;9.40;99.90
18950;DHT22;9608;49.288;8.130;2024-02-21T03:00:19;9.30;99.90
18950;DHT22;9608;49.288;8.130;2024-02-21T03:02:48;9.20;99.90
18950;DHT22;9608;49.288;8.130;2024-02-21T03:05:16;9.20;99.90
18950;DHT22;9608;49.288;8.130;2024-02-21T03:07:44;9.30;99.90
18950;DHT22;9608;49.288;8.130;2024-02-21T03:10:11;9.30;99.90
18950;DHT22;9608;49.288;8.130;2024-02-21T03:12:39;9.30;99.90
18950;DHT22;9608;49.288;8.130;2024-02-21T03:15:07;9.30;99.90
18950;DHT22;9608;49.288;8.130;2024-02-21T03:17:34;9.30;99.90
18950;DHT22;9608;49.288;8.130;2024-02-21T03:20:01;9.30;99.90
18950;DHT22;9608;49.288;8.130;2024-02-21T03:22:31;9.20;99.90
18950;DHT22;9608;49.288;8.130;2024-02-21T03:24:57;9.10;99.90
18950;DHT22;9608;49.288;8.130;2024-02-21T03:27:24;9.00;99.90
18950;DHT22;9608;49.288;8.130;2024-02-21T03:29:51;8.80;99.90
18950;DHT22;9608;49.288;8.130;2024-02-21T03:32:19;8.60;99.90
18950;DHT22;9608;49.288;8.130;2024-02-21T03:34:46;8.60;99.90
18950;DHT22;9608;49.288;8.130;2024-02-21T03:37:12;8.50;99.90
18950;DHT22;9608;49.288;8.130;2024-02-21T03:39:39;8.50;99.90
18950;DHT22;9608;49.288;8.130;2024-02-21T03:42:06;8.50;99.90
18950;DHT22;9608;49.288;8.130;2024-02-21T03:44:33;8.40;99.90
18950;DHT22;9608;49.288;8.130;2024-02-21T03:47:00;8.50;99.90
18950;DHT22;9608;49.288;8.130;2024-02-21T03:49:28;8.50;99.90
18950;DHT22;9608;49.288;8.130;2024-02-21T03:51:55;8.60;99.90
18950;DHT22;9608;49.288;8.130;2024-02-21T03:54:22;8.60;99.90
18950;DHT22;9608;49.288;8.130;2024-02-21T03:56:48;8.60;99.90
18950;DHT22;9608;49.288;8.130;2024-02-21T03:59:15;8.50;99.90
18950;DHT22;9608;49.288;8.130;2024-02-21T04:01:42;8.50;99.90
18950;DHT22;9608;49.288;8.130;2024-02-21T04:04:10;8.60;99.90
18950;DHT22;9608;49.288;8.130;2024-02-21T04:06:46;8.50;99.90
18950;DHT22;9608;49.288;8.130;2024-02-21T04:09:12;8.40;99.90
18950;DHT22;9608;49.288;8.130;2024-02-21T04:11:39;8.40;99.90
18950;DHT22;9608;49.288;8.130;2024-02-21T04:14:06;8.40;99.90
18950;DHT22;9608;49.288;8.130;2024-02-21T04:16:33;8.40;99.90
18950;DHT22;9608;49.288;8.130;2024-02-21T04:18:59;8.40;99.90
18950;DHT22;9608;49.288;8.130;2024-02-21T04:21:27;8.50;99.90
18950;DHT22;9608;49.288;8.130;2024-02-21T04:23:55;8.40;99.90
18950;DHT22;9608;49.288;8.130;2024-02-21T04:26:22;8.40;99.90
18950;DHT22;9608;49.288;8.130;2024-02-21T04:28:48;8.50;99.90
18950;DHT22;9608;49.288;8.130;2024-02-21T04:31:15;8.40;99.90
18950;DHT22;9608;49.288;8.130;2024-02-21T04:33:42;8.40;99.90
18950;DHT22;9608;49.288;8.130;2024-02-21T04:36:09;8.40;99.90
18950;DHT22;9608;49.288;8.130;2024-02-21T04:38:35;8.50;99.90
18950;DHT22;9608;49.288;8.130;2024-02-21T04:41:05;8.40;99.90
18950;DHT22;9608;49.288;8.130;2024-02-21T04:43:33;8.40;99.90
18950;DHT22;9608;49.288;8.130;2024-02-21T04:46:00;8.40;99.90
18950;DHT22;9608;49.288;8.130;2024-02-21T04:48:27;8.40;99.90
18950;DHT22;9608;49.288;8.130;2024-02-21T04:50:53;8.40;99.90
18950;DHT22;9608;49.288;8.130;2024-02-21T04:53:20;8.30;99.90
18950;DHT22;9608;49.288;8.130;2024-02-21T04:55:47;8.20;99.90
18950;DHT22;9608;49.288;8.130;2024-02-21T04:58:15;8.10;99.90
18950;DHT22;9608;49.288;8.130;2024-02-21T05:00:41;8.00;99.90
18950;DHT22;9608;49.288;8.130;2024-02-21T05:03:08;8.00;99.90
18950;DHT22;9608;49.288;8.130;2024-02-21T05:05:35;8.00;99.90
18950;DHT22;9608;49.288;8.130;2024-02-21T05:08:02;7.90;99.90
18950;DHT22;9608;49.288;8.130;2024-02-21T05:10:28;7.90;99.90
18950;DHT22;9608;49.288;8.130;2024-02-21T05:12:55;7.90;99.90
18950;DHT22;9608;49.288;8.130;2024-02-21T05:15:23;8.00;99.90
18950;DHT22;9608;49.288;8.130;2024-02-21T05:17:50;8.00;99.90
18950;DHT22;9608;49.288;8.130;2024-02-21T05:20:16;8.00;99.90
18950;DHT22;9608;49.288;8.130;2024-02-21T05:22:43;7.90;99.90
18950;DHT22;9608;49.288;8.130;2024-02-21T05:25:10;7.80;99.90
18950;DHT22;9608;49.288;8.130;2024-02-21T05:27:36;7.80;99.90
18950;DHT22;9608;49.288;8.130;2024-02-21T05:30:05;7.80;99.90
18950;DHT22;9608;49.288;8.130;2024-02-21T05:32:33;7.70;99.90
18950;DHT22;9608;49.288;8.130;2024-02-21T05:35:00;7.70;99.90
18950;DHT22;9608;49.288;8.130;2024-02-21T05:37:27;7.70;99.90
18950;DHT22;9608;49.288;8.130;2024-02-21T05:39:53;7.70;99.90
18950;DHT22;9608;49.288;8.130;2024-02-21T05:42:20;7.60;99.90
18950;DHT22;9608;49.288;8.130;2024-02-21T05:44:47;7.60;99.90
18950;DHT22;9608;49.288;8.130;2024-02-21T05:47:13;7.50;99.90
18950;DHT22;9608;49.288;8.130;2024-02-21T05:49:42;7.50;99.90
18950;DHT22;9608;49.288;8.130;2024-02-21T05:52:08;7.50;99.90
18950;DHT22;9608;49.288;8.130;2024-02-21T05:54:38;7.50;99.90
18950;DHT22;9608;49.288;8.130;2024-02-21T05:57:06;7.50;99.90
18950;DHT22;9608;49.288;8.130;2024-02-21T05:59:33;7.50;99.90
18950;DHT22;9608;49.288;8.130;2024-02-21T06:02:01;7.40;99.90
18950;DHT22;9608;49.288;8.130;2024-02-21T06:04:29;7.40;99.90
18950;DHT22;9608;49.288;8.130;2024-02-21T06:06:57;7.40;99.90
18950;DHT22;9608;49.288;8.130;2024-02-21T06:09:24;7.60;99.90
18950;DHT22;9608;49.288;8.130;2024-02-21T06:11:51;7.40;99.90
18950;DHT22;9608;49.288;8.130;2024-02-21T06:14:18;7.10;99.90
18950;DHT22;9608;49.288;8.130;2024-02-21T06:16:44;7.00;99.90
18950;DHT22;9608;49.288;8.130;2024-02-21T06:19:11;6.90;99.90
18950;DHT22;9608;49.288;8.130;2024-02-21T06:21:38;6.80;99.90
18950;DHT22;9608;49.288;8.130;2024-02-21T06:24:06;6.80;99.90
18950;DHT22;9608;49.288;8.130;2024-02-21T06:26:33;6.80;99.90
18950;DHT22;9608;49.288;8.130;2024-02-21T06:29:00;6.80;99.90
18950;DHT22;9608;49.288;8.130;2024-02-21T06:31:25;6.80;99.90
18950;DHT22;9608;49.288;8.130;2024-02-21T06:33:52;6.70;99.90
18950;DHT22;9608;49.288;8.130;2024-02-21T06:36:19;6.80;99.90
18950;DHT22;9608;49.288;8.130;2024-02-21T06:38:45;6.80;99.90
18950;DHT22;9608;49.288;8.130;2024-02-21T06:41:17;6.90;99.90
18950;DHT22;9608;49.288;8.130;2024-02-21T06:43:44;6.90;99.90
18950;DHT22;9608;49.288;8.130;2024-02-21T06:46:11;7.00;99.90
18950;DHT22;9608;49.288;8.130;2024-02-21T06:48:38;7.10;99.90
18950;DHT22;9608;49.288;8.130;2024-02-21T06:51:04;7.10;99.90
18950;DHT22;9608;49.288;8.130;2024-02-21T06:53:31;7.10;99.90
18950;DHT22;9608;49.288;8.130;2024-02-21T06:55:58;7.10;99.90
18950;DHT22;9608;49.288;8.130;2024-02-21T06:58:26;7.20;99.90
18950;DHT22;9608;49.288;8.130;2024-02-21T07:00:53;7.30;99.90
18950;DHT22;9608;49.288;8.130;2024-02-21T07:03:20;7.40;99.90
18950;DHT22;9608;49.288;8.130;2024-02-21T07:05:49;7.50;99.90
18950;DHT22;9608;49.288;8.130;2024-02-21T07:08:17;7.50;99.90
18950;DHT22;9608;49.288;8.130;2024-02-21T07:10:44;7.50;99.90
18950;DHT22;9608;49.288;8.130;2024-02-21T07:13:11;7.50;99.90
18950;DHT22;9608;49.288;8.130;2024-02-21T07:15:41;7.50;99.90
18950;DHT22;9608;49.288;8.130;2024-02-21T07:18:08;7.40;99.90
18950;DHT22;9608;49.288;8.130;2024-02-21T07:20:35;7.30;99.90
18950;DHT22;9608;49.288;8.130;2024-02-21T07:23:03;7.20;99.90
18950;DHT22;9608;49.288;8.130;2024-02-21T07:25:30;7.30;99.90
18950;DHT22;9608;49.288;8.130;2024-02-21T07:27:57;7.30;99.90
18950;DHT22;9608;49.288;8.130;2024-02-21T07:30:25;7.30;99.90
18950;DHT22;9608;49.288;8.130;2024-02-21T07:32:54;7.20;99.90
18950;DHT22;9608;49.288;8.130;2024-02-21T07:35:21;7.20;99.90
18950;DHT22;9608;49.288;8.130;2024-02-21T07:37:48;7.10;99.90
18950;DHT22;9608;49.288;8.130;2024-02-21T07:40:15;7.20;99.90
18950;DHT22;9608;49.288;8.130;2024-02-21T07:42:43;7.40;99.90
18950;DHT22;9608;49.288;8.130;2024-02-21T07:45:11;7.30;99.90
18950;DHT22;9608;49.288;8.130;2024-02-21T07:47:38;7.20;99.90
18950;DHT22;9608;49.288;8.130;2024-02-21T07:50:08;7.30;99.90
18950;DHT22;9608;49.288;8.130;2024-02-21T07:52:35;7.40;99.90
18950;DHT22;9608;49.288;8.130;2024-02-21T07:55:03;7.50;99.90
18950;DHT22;9608;49.288;8.130;2024-02-21T07:57:31;7.60;99.90
18950;DHT22;9608;49.288;8.130;2024-02-21T08:00:01;7.70;99.90
18950;DHT22;9608;49.288;8.130;2024-02-21T08:02:30;7.90;99.90
18950;DHT22;9608;49.288;8.130;2024-02-21T08:04:57;7.70;99.90
18950;DHT22;9608;49.288;8.130;2024-02-21T08:07:27;7.80;99.90
18950;DHT22;9608;49.288;8.130;2024-02-21T08:09:56;8.00;99.90
18950;DHT22;9608;49.288;8.130;2024-02-21T08:12:24;8.10;99.90
18950;DHT22;9608;49.288;8.130;2024-02-21T08:14:51;8.20;99.90
18950;DHT22;9608;49.288;8.130;2024-02-21T08:17:19;8.30;99.90
18950;DHT22;9608;49.288;8.130;2024-02-21T08:19:47;8.40;99.90
18950;DHT22;9608;49.288;8.130;2024-02-21T08:22:15;8.40;99.90
18950;DHT22;9608;49.288;8.130;2024-02-21T08:24:54;8.30;99.90
18950;DHT22;9608;49.288;8.130;2024-02-21T08:27:22;8.20;99.90
18950;DHT22;9608;49.288;8.130;2024-02-21T08:29:49;8.30;99.90
18950;DHT22;9608;49.288;8.130;2024-02-21T08:32:16;8.40;99.90
18950;DHT22;9608;49.288;8.130;2024-02-21T08:34:43;8.50;99.90
18950;DHT22;9608;49.288;8.130;2024-02-21T08:37:11;8.40;99.90
18950;DHT22;9608;49.288;8.130;2024-02-21T08:39:41;8.50;99.90
18950;DHT22;9608;49.288;8.130;2024-02-21T08:42:10;8.50;99.90
18950;DHT22;9608;49.288;8.130;2024-02-21T08:44:39;8.60;99.90
18950;DHT22;9608;49.288;8.130;2024-02-21T08:47:06;8.60;99.90
18950;DHT22;9608;49.288;8.130;2024-02-21T08:49:35;8.70;99.90
18950;DHT22;9608;49.288;8.130;2024-02-21T08:52:03;8.90;99.90
18950;DHT22;9608;49.288;8.130;2024-02-21T08:54:31;9.10;99.90
18950;DHT22;9608;49.288;8.130;2024-02-21T08:56:58;9.10;99.90
18950;DHT22;9608;49.288;8.130;2024-02-21T08:59:28;9.30;99.90
18950;DHT22;9608;49.288;8.130;2024-02-21T09:01:55;9.30;99.90
18950;DHT22;9608;49.288;8.130;2024-02-21T09:04:23;9.40;99.90
18950;DHT22;9608;49.288;8.130;2024-02-21T09:06:51;9.40;99.90
18950;DHT22;9608;49.288;8.130;2024-02-21T09:09:18;9.60;99.90
18950;DHT22;9608;49.288;8.130;2024-02-21T09:11:47;9.60;99.90
18950;DHT22;9608;49.288;8.130;2024-02-21T09:14:15;9.70;99.90
18950;DHT22;9608;49.288;8.130;2024-02-21T09:16:46;9.90;99.90
18950;DHT22;9608;49.288;8.130;2024-02-21T09:19:14;9.90;99.90
18950;DHT22;9608;49.288;8.130;2024-02-21T09:21:43;9.90;99.90
18950;DHT22;9608;49.288;8.130;2024-02-21T09:24:28;10.00;99.90
18950;DHT22;9608;49.288;8.130;2024-02-21T09:27:07;10.10;99.90
18950;DHT22;9608;49.288;8.130;2024-02-21T09:29:35;10.30;99.90
18950;DHT22;9608;49.288;8.130;2024-02-21T09:32:08;10.40;99.90
18950;DHT22;9608;49.288;8.130;2024-02-21T09:34:36;10.40;99.90
18950;DHT22;9608;49.288;8.130;2024-02-21T09:37:05;10.30;99.90
18950;DHT22;9608;49.288;8.130;2024-02-21T09:39:34;10.20;99.90
18950;DHT22;9608;49.288;8.130;2024-02-21T09:42:07;10.10;99.90
18950;DHT22;9608;49.288;8.130;2024-02-21T09:44:46;10.20;99.90
18950;DHT22;9608;49.288;8.130;2024-02-21T09:47:25;10.20;99.90
18950;DHT22;9608;49.288;8.130;2024-02-21T09:50:18;10.20;99.90
18950;DHT22;9608;49.288;8.130;2024-02-21T09:53:18;10.30;99.90
18950;DHT22;9608;49.288;8.130;2024-02-21T09:56:35;10.30;99.90
18950;DHT22;9608;49.288;8.130;2024-02-21T09:59:41;10.50;99.90
18950;DHT22;9608;49.288;8.130;2024-02-21T10:02:40;10.50;99.90
18950;DHT22;9608;49.288;8.130;2024-02-21T10:05:15;10.70;99.90
18950;DHT22;9608;49.288;8.130;2024-02-21T10:08:02;10.80;99.90
18950;DHT22;9608;49.288;8.130;2024-02-21T10:10:57;10.90;99.90
18950;DHT22;9608;49.288;8.130;2024-02-21T10:17:18;11.00;99.90
18950;DHT22;9608;49.288;8.130;2024-02-21T10:20:14;11.10;99.90
18950;DHT22;9608;49.288;8.130;2024-02-21T10:22:45;11.20;99.90
18950;DHT22;9608;49.288;8.130;2024-02-21T10:25:15;11.10;99.90
18950;DHT22;9608;49.288;8.130;2024-02-21T10:27:47;11.20;99.90
18950;DHT22;9608;49.288;8.130;2024-02-21T10:30:17;11.10;99.90
18950;DHT22;9608;49.288;8.130;2024-02-21T10:32:51;11.10;99.90
18950;DHT22;9608;49.288;8.130;2024-02-21T10:35:35;11.20;99.90
18950;DHT22;9608;49.288;8.130;2024-02-21T10:38:03;11.10;99.90
18950;DHT22;9608;49.288;8.130;2024-02-21T10:40:30;11.20;99.90
18950;DHT22;9608;49.288;8.130;2024-02-21T10:43:02;11.20;99.90
18950;DHT22;9608;49.288;8.130;2024-02-21T10:45:31;11.40;99.90
18950;DHT22;9608;49.288;8.130;2024-02-21T10:48:08;11.50;99.90
18950;DHT22;9608;49.288;8.130;2024-02-21T10:50:52;11.30;99.90
18950;DHT22;9608;49.288;8.130;2024-02-21T10:53:31;11.30;99.90
18950;DHT22;9608;49.288;8.130;2024-02-21T10:56:06;11.40;99.90
18950;DHT22;9608;49.288;8.130;2024-02-21T10:58:43;11.50;99.90
18950;DHT22;9608;49.288;8.130;2024-02-21T11:01:13;11.60;99.90
18950;DHT22;9608;49.288;8.130;2024-02-21T11:09:37;11.80;99.90
18950;DHT22;9608;49.288;8.130;2024-02-21T11:12:09;11.90;99.90
18950;DHT22;9608;49.288;8.130;2024-02-21T11:14:39;12.00;99.90
18950;DHT22;9608;49.288;8.130;2024-02-21T11:17:15;12.30;99.90
18950;DHT22;9608;49.288;8.130;2024-02-21T11:19:44;12.60;99.90
18950;DHT22;9608;49.288;8.130;2024-02-21T11:22:17;12.90;99.90
18950;DHT22;9608;49.288;8.130;2024-02-21T11:24:53;13.20;99.90
18950;DHT22;9608;49.288;8.130;2024-02-21T11:27:28;13.20;99.90
18950;DHT22;9608;49.288;8.130;2024-02-21T11:30:07;13.30;99.90
18950;DHT22;9608;49.288;8.130;2024-02-21T11:32:41;13.50;99.90
18950;DHT22;9608;49.288;8.130;2024-02-21T11:35:19;13.50;99.90
18950;DHT22;9608;49.288;8.130;2024-02-21T11:37:46;13.50;99.90
18950;DHT22;9608;49.288;8.130;2024-02-21T11:40:15;13.50;99.90
18950;DHT22;9608;49.288;8.130;2024-02-21T11:42:42;13.40;99.90
18950;DHT22;9608;49.288;8.130;2024-02-21T11:45:29;13.50;99.90
18950;DHT22;9608;49.288;8.130;2024-02-21T11:48:16;13.30;99.90
18950;DHT22;9608;49.288;8.130;2024-02-21T11:51:02;13.40;99.90
18950;DHT22;9608;49.288;8.130;2024-02-21T11:53:31;13.10;99.90
18950;DHT22;9608;49.288;8.130;2024-02-21T11:56:01;13.00;99.90
18950;DHT22;9608;49.288;8.130;2024-02-21T11:58:28;12.90;99.90
18950;DHT22;9608;49.288;8.130;2024-02-21T12:00:56;13.00;99.90
18950;DHT22;9608;49.288;8.130;2024-02-21T12:03:24;12.80;99.90
18950;DHT22;9608;49.288;8.130;2024-02-21T12:05:54;12.80;99.90
18950;DHT22;9608;49.288;8.130;2024-02-21T12:08:26;12.80;99.90
18950;DHT22;9608;49.288;8.130;2024-02-21T12:10:57;12.80;99.90
18950;DHT22;9608;49.288;8.130;2024-02-21T12:13:31;12.90;99.90
18950;DHT22;9608;49.288;8.130;2024-02-21T12:15:58;13.10;99.90
18950;DHT22;9608;49.288;8.130;2024-02-21T12:18:26;13.10;99.90
18950;DHT22;9608;49.288;8.130;2024-02-21T12:20:53;13.10;99.90
18950;DHT22;9608;49.288;8.130;2024-02-21T12:23:20;13.30;99.90
18950;DHT22;9608;49.288;8.130;2024-02-21T12:25:46;13.50;99.90
18950;DHT22;9608;49.288;8.130;2024-02-21T12:31:49;13.30;99.90
18950;DHT22;9608;49.288;8.130;2024-02-21T12:34:16;13.20;99.90
18950;DHT22;9608;49.288;8.130;2024-02-21T12:36:44;13.10;99.90
18950;DHT22;9608;49.288;8.130;2024-02-21T12:39:12;13.20;99.90
18950;DHT22;9608;49.288;8.130;2024-02-21T12:41:40;13.20;99.90
18950;DHT22;9608;49.288;8.130;2024-02-21T12:44:08;13.20;99.90
18950;DHT22;9608;49.288;8.130;2024-02-21T12:46:36;13.00;99.90
18950;DHT22;9608;49.288;8.130;2024-02-21T12:49:07;13.10;99.90
18950;DHT22;9608;49.288;8.130;2024-02-21T12:51:38;13.20;99.90
18950;DHT22;9608;49.288;8.130;2024-02-21T12:54:15;13.10;99.90
18950;DHT22;9608;49.288;8.130;2024-02-21T12:56:45;13.10;99.90
18950;DHT22;9608;49.288;8.130;2024-02-21T12:59:23;13.00;99.90
18950;DHT22;9608;49.288;8.130;2024-02-21T13:01:59;12.90;99.90
18950;DHT22;9608;49.288;8.130;2024-02-21T13:04:34;13.10;99.90
18950;DHT22;9608;49.288;8.130;2024-02-21T13:07:06;13.20;99.90
18950;DHT22;9608;49.288;8.130;2024-02-21T13:09:33;13.40;99.90
18950;DHT22;9608;49.288;8.130;2024-02-21T13:12:01;13.30;99.90
18950;DHT22;9608;49.288;8.130;2024-02-21T13:14:28;12.90;99.90
18950;DHT22;9608;49.288;8.130;2024-02-21T13:16:55;12.80;99.90
18950;DHT22;9608;49.288;8.130;2024-02-21T13:19:22;12.60;99.90
18950;DHT22;9608;49.288;8.130;2024-02-21T13:21:51;12.30;99.90
18950;DHT22;9608;49.288;8.130;2024-02-21T13:24:18;12.30;99.90
18950;DHT22;9608;49.288;8.130;2024-02-21T13:26:45;12.20;99.90
18950;DHT22;9608;49.288;8.130;2024-02-21T13:29:11;12.30;99.90
18950;DHT22;9608;49.288;8.130;2024-02-21T13:31:38;12.40;99.90
18950;DHT22;9608;49.288;8.130;2024-02-21T13:34:05;12.40;99.90
18950;DHT22;9608;49.288;8.130;2024-02-21T13:36:34;12.60;99.90
18950;DHT22;9608;49.288;8.130;2024-02-21T13:39:03;12.80;99.90
18950;DHT22;9608;49.288;8.130;2024-02-21T13:41:32;12.60;99.90
18950;DHT22;9608;49.288;8.130;2024-02-21T13:44:00;12.70;99.90
18950;DHT22;9608;49.288;8.130;2024-02-21T13:46:27;12.60;99.90
18950;DHT22;9608;49.288;8.130;2024-02-21T13:49:02;12.50;99.90
18950;DHT22;9608;49.288;8.130;2024-02-21T13:51:34;12.70;99.90
18950;DHT22;9608;49.288;8.130;2024-02-21T13:54:10;12.90;99.90
18950;DHT22;9608;49.288;8.130;2024-02-21T13:56:42;13.00;99.90
18950;DHT22;9608;49.288;8.130;2024-02-21T13:59:15;13.10;99.90
18950;DHT22;9608;49.288;8.130;2024-02-21T14:01:43;12.90;99.90
18950;DHT22;9608;49.288;8.130;2024-02-21T14:04:11;12.90;99.90
18950;DHT22;9608;49.288;8.130;2024-02-21T14:06:38;12.90;99.90
18950;DHT22;9608;49.288;8.130;2024-02-21T14:09:10;12.90;99.90
18950;DHT22;9608;49.288;8.130;2024-02-21T14:11:37;13.00;99.90
18950;DHT22;9608;49.288;8.130;2024-02-21T14:14:05;12.90;99.90
18950;DHT22;9608;49.288;8.130;2024-02-21T14:16:33;12.80;99.90
18950;DHT22;9608;49.288;8.130;2024-02-21T14:19:03;12.70;99.90
18950;DHT22;9608;49.288;8.130;2024-02-21T14:21:34;12.80;99.90
18950;DHT22;9608;49.288;8.130;2024-02-21T14:24:03;12.90;99.90
18950;DHT22;9608;49.288;8.130;2024-02-21T14:26:31;12.90;99.90
18950;DHT22;9608;49.288;8.130;2024-02-21T14:28:58;12.70;99.90
18950;DHT22;9608;49.288;8.130;2024-02-21T14:31:25;12.50;99.90
18950;DHT22;9608;49.288;8.130;2024-02-21T14:33:52;12.50;99.90
18950;DHT22;9608;49.288;8.130;2024-02-21T14:36:20;12.40;99.90
18950;DHT22;9608;49.288;8.130;2024-02-21T14:38:50;12.40;99.90
18950;DHT22;9608;49.288;8.130;2024-02-21T14:41:17;12.20;99.90
18950;DHT22;9608;49.288;8.130;2024-02-21T14:43:47;12.00;99.90
18950;DHT22;9608;49.288;8.130;2024-02-21T14:46:17;12.10;99.90
18950;DHT22;9608;49.288;8.130;2024-02-21T14:48:44;12.10;99.90
18950;DHT22;9608;49.288;8.130;2024-02-21T14:51:11;11.90;99.90
18950;DHT22;9608;49.288;8.130;2024-02-21T14:53:38;11.90;99.90
18950;DHT22;9608;49.288;8.130;2024-02-21T14:56:13;11.70;99.90
18950;DHT22;9608;49.288;8.130;2024-02-21T14:59:16;11.40;99.90
18950;DHT22;9608;49.288;8.130;2024-02-21T15:01:58;11.50;99.90
18950;DHT22;9608;49.288;8.130;2024-02-21T15:07:09;11.60;99.90
18950;DHT22;9608;49.288;8.130;2024-02-21T15:09:45;11.60;99.90
18950;DHT22;9608;49.288;8.130;2024-02-21T15:12:49;11.70;99.90
18950;DHT22;9608;49.288;8.130;2024-02-21T15:19:34;11.70;99.90
18950;DHT22;9608;49.288;8.130;2024-02-21T15:22:29;11.50;99.90
18950;DHT22;9608;49.288;8.130;2024-02-21T15:25:05;11.20;99.90
18950;DHT22;9608;49.288;8.130;2024-02-21T15:27:44;11.00;99.90
18950;DHT22;9608;49.288;8.130;2024-02-21T15:30:15;10.70;99.90
18950;DHT22;9608;49.288;8.130;2024-02-21T15:32:42;10.60;99.90
18950;DHT22;9608;49.288;8.130;2024-02-21T15:35:11;10.60;99.90
18950;DHT22;9608;49.288;8.130;2024-02-21T15:37:38;10.60;99.90
18950;DHT22;9608;49.288;8.130;2024-02-21T15:40:06;10.60;99.90
18950;DHT22;9608;49.288;8.130;2024-02-21T15:42:33;10.60;99.90
18950;DHT22;9608;49.288;8.130;2024-02-21T15:45:00;10.40;99.90
18950;DHT22;9608;49.288;8.130;2024-02-21T15:47:30;10.40;99.90
18950;DHT22;9608;49.288;8.130;2024-02-21T15:49:59;10.50;99.90
18950;DHT22;9608;49.288;8.130;2024-02-21T15:52:31;10.40;99.90
18950;DHT22;9608;49.288;8.130;2024-02-21T15:54:58;10.40;99.90
18950;DHT22;9608;49.288;8.130;2024-02-21T15:57:25;10.40;99.90
18950;DHT22;9608;49.288;8.130;2024-02-21T15:59:51;10.30;99.90
18950;DHT22;9608;49.288;8.130;2024-02-21T16:02:19;10.30;99.90
18950;DHT22;9608;49.288;8.130;2024-02-21T16:04:46;10.50;99.90
18950;DHT22;9608;49.288;8.130;2024-02-21T16:07:13;10.50;99.90
18950;DHT22;9608;49.288;8.130;2024-02-21T16:09:41;10.40;99.90
18950;DHT22;9608;49.288;8.130;2024-02-21T16:12:09;10.50;99.90
18950;DHT22;9608;49.288;8.130;2024-02-21T16:14:36;10.40;99.90
18950;DHT22;9608;49.288;8.130;2024-02-21T16:17:04;10.40;99.90
18950;DHT22;9608;49.288;8.130;2024-02-21T16:19:31;10.40;99.90
18950;DHT22;9608;49.288;8.130;2024-02-21T16:21:58;10.30;99.90
18950;DHT22;9608;49.288;8.130;2024-02-21T16:24:26;10.20;99.90
18950;DHT22;9608;49.288;8.130;2024-02-21T16:26:54;10.00;99.90
18950;DHT22;9608;49.288;8.130;2024-02-21T16:29:22;9.90;99.90